Time;durP1;ratioP1;P1;durP2;ratioP2;P2;SDS_P1;SDS_P2;PMS_P1;PMS_P2;Temp;Humidity;BMP_temperature;BMP_pressure;BME280_temperature;BME280_humidity;BME280_pressure;Samples;Min_cycle;Max_cycle;Signal;HPM_P1;HPM_P2
2022/08/29 00:02:21;;;;;;;0.80;0.45;;;;;;;23.99;45.05;102183.28;5059505;28;20024;-44
2022/08/29 00:04:46;;;;;;;0.47;0.40;;;;;;;23.97;44.73;102177.19;5060094;28;20033;-42
2022/08/29 00:07:11;;;;;;;0.52;0.32;;;;;;;23.99;44.72;102178.69;5056828;28;20032;-44
2022/08/29 00:09:37;;;;;;;0.90;0.50;;;;;;;23.93;44.88;102166.66;5062310;28;20049;-45
2022/08/29 00:12:03;;;;;;;0.85;0.50;;;;;;;23.97;44.93;102174.47;5063973;28;20055;-44
2022/08/29 00:14:28;;;;;;;1.25;0.75;;;;;;;23.96;44.87;102179.06;5065717;28;20035;-45
2022/08/29 00:16:53;;;;;;;1.17;0.65;;;;;;;23.93;44.87;102169.38;5063952;28;20032;-49
2022/08/29 00:19:19;;;;;;;0.40;0.30;;;;;;;23.94;44.71;102167.50;5052252;28;20120;-46
2022/08/29 00:21:44;;;;;;;0.47;0.40;;;;;;;23.93;45.05;102172.09;5064123;28;20021;-47
2022/08/29 00:24:09;;;;;;;1.15;0.60;;;;;;;23.93;44.93;102165.81;5059454;28;20017;-43
2022/08/29 00:26:35;;;;;;;0.88;0.40;;;;;;;23.92;44.90;102166.84;5060070;28;20029;-45
2022/08/29 00:29:00;;;;;;;0.90;0.50;;;;;;;23.91;44.69;102173.25;5065222;28;20092;-43
2022/08/29 00:31:26;;;;;;;0.50;0.50;;;;;;;23.87;44.92;102163.75;5064750;28;20049;-43
2022/08/29 00:33:51;;;;;;;0.60;0.40;;;;;;;23.89;44.73;102164.44;5064753;28;20102;-46
2022/08/29 00:36:17;;;;;;;0.77;0.40;;;;;;;23.85;44.86;102171.25;5064799;28;20051;-45
2022/08/29 00:38:42;;;;;;;1.42;0.68;;;;;;;23.88;44.74;102179.06;5064993;28;20055;-46
2022/08/29 00:41:07;;;;;;;1.00;0.40;;;;;;;23.87;44.78;102174.63;5064806;28;20032;-48
2022/08/29 00:43:35;;;;;;;0.50;0.50;;;;;;;23.86;44.86;102173.78;5064714;28;20100;-48
2022/08/29 00:46:09;;;;;;;0.75;0.30;;;;;;;23.86;44.71;102172.94;5063914;28;20021;-45
2022/08/29 00:48:35;;;;;;;0.57;0.43;;;;;;;23.85;44.81;102176.69;5064112;28;20017;-47
2022/08/29 00:51:03;;;;;;;0.65;0.40;;;;;;;23.84;44.91;102183.97;5063443;28;20108;-44
2022/08/29 00:53:34;;;;;;;0.50;0.30;;;;;;;23.84;44.79;102181.25;5064528;28;20028;-46
2022/08/29 00:55:59;;;;;;;0.55;0.40;;;;;;;23.77;44.73;102173.97;5054815;28;20049;-48
2022/08/29 00:58:29;;;;;;;1.15;0.40;;;;;;;23.82;44.67;102177.84;5044983;28;20029;-46
2022/08/29 01:00:55;;;;;;;0.70;0.47;;;;;;;23.80;44.72;102177.19;5050704;28;20074;-45
2022/08/29 01:03:21;;;;;;;0.70;0.40;;;;;;;23.80;44.92;102171.75;5062973;28;20025;-44
2022/08/29 01:05:47;;;;;;;0.45;0.30;;;;;;;23.80;44.57;102174.47;5064962;28;20553;-47
2022/08/29 01:08:12;;;;;;;1.05;0.40;;;;;;;23.78;44.69;102168.34;5065041;28;20025;-48
2022/08/29 01:13:25;;;;;;;0.40;0.30;;;;;;;23.76;44.67;102167.69;5052500;28;20129;-46
2022/08/29 01:15:50;;;;;;;0.65;0.40;;;;;;;23.75;44.87;102166.00;5057152;28;20022;-45
2022/08/29 01:18:16;;;;;;;0.40;0.40;;;;;;;23.75;44.55;102170.59;5053420;28;20067;-44
2022/08/29 01:20:51;;;;;;;1.10;0.52;;;;;;;23.75;44.93;102167.88;5062099;28;20024;-48
2022/08/29 01:23:27;;;;;;;0.52;0.40;;;;;;;23.74;44.80;102168.84;5055375;28;20029;-47
2022/08/29 01:25:53;;;;;;;0.60;0.50;;;;;;;23.72;44.79;102171.75;5061303;28;20036;-44
2022/08/29 01:28:30;;;;;;;1.48;0.50;;;;;;;23.71;44.79;102164.63;5051126;28;20065;-45
2022/08/29 01:31:05;;;;;;;0.40;0.28;;;;;;;23.71;44.75;102172.78;5049791;28;20059;-46
2022/08/29 01:33:43;;;;;;;0.30;0.30;;;;;;;23.70;44.68;102179.22;5050941;28;20021;-43
2022/08/29 01:36:10;;;;;;;0.77;0.40;;;;;;;23.66;44.87;102173.28;5051394;28;20025;-45
2022/08/29 01:38:37;;;;;;;0.73;0.50;;;;;;;23.66;44.84;102173.28;5056620;28;20036;-47
2022/08/29 01:41:03;;;;;;;0.40;0.40;;;;;;;23.63;44.73;102157.31;5056998;28;20029;-47
2022/08/29 01:43:28;;;;;;;0.85;0.50;;;;;;;23.65;44.68;102159.88;5049904;28;20032;-48
2022/08/29 01:45:54;;;;;;;0.30;0.30;;;;;;;23.64;44.92;102159.00;5054612;28;20041;-45
2022/08/29 01:48:20;;;;;;;0.60;0.40;;;;;;;23.63;44.60;102149.16;5063545;28;20083;-47
2022/08/29 01:50:46;;;;;;;1.92;0.50;;;;;;;23.59;44.74;102150.50;5054391;28;20029;-42
2022/08/29 01:53:12;;;;;;;0.40;0.40;;;;;;;23.62;44.92;102152.91;5059707;28;20029;-48
2022/08/29 01:55:38;;;;;;;1.55;0.30;;;;;;;23.61;44.99;102161.19;5063942;28;20049;-46
2022/08/29 01:58:04;;;;;;;0.52;0.30;;;;;;;23.61;44.76;102169.34;5063346;28;20052;-47
2022/08/29 02:00:29;;;;;;;0.50;0.30;;;;;;;23.56;44.74;102160.84;5057861;28;20034;-46
2022/08/29 02:02:55;;;;;;;0.60;0.47;;;;;;;23.57;44.82;102160.69;5043527;28;20079;-46
2022/08/29 02:05:22;;;;;;;0.20;0.20;;;;;;;23.59;44.92;102171.38;5061558;28;20051;-48
2022/08/29 02:07:48;;;;;;;0.80;0.45;;;;;;;23.56;44.95;102167.13;5063642;28;20029;-47
2022/08/29 02:10:13;;;;;;;0.93;0.40;;;;;;;23.56;44.58;102178.00;5063778;28;20063;-43
2022/08/29 02:12:39;;;;;;;0.38;0.38;;;;;;;23.55;44.60;102170.03;5063349;28;20032;-45
2022/08/29 02:15:06;;;;;;;0.40;0.40;;;;;;;23.55;44.89;102170.03;5063464;28;20025;-47
2022/08/29 02:17:31;;;;;;;0.32;0.32;;;;;;;23.54;44.78;102168.34;5048656;28;20037;-48
2022/08/29 02:19:57;;;;;;;0.85;0.55;;;;;;;23.53;44.66;102170.19;5063746;28;20472;-43
2022/08/29 02:22:22;;;;;;;0.50;0.40;;;;;;;23.51;45.00;102166.81;5063276;28;20029;-49
2022/08/29 02:24:47;;;;;;;0.70;0.50;;;;;;;23.52;44.85;102170.34;5063549;28;20028;-44
2022/08/29 02:27:12;;;;;;;0.65;0.60;;;;;;;23.51;44.73;102165.94;5061291;28;20029;-44
2022/08/29 02:29:38;;;;;;;0.70;0.50;;;;;;;23.51;44.62;102171.38;5051543;28;20051;-42
2022/08/29 02:32:11;;;;;;;0.70;0.45;;;;;;;23.50;44.80;102172.41;5058703;28;20061;-43
2022/08/29 02:34:36;;;;;;;0.68;0.40;;;;;;;23.49;44.79;102182.41;5049360;28;20059;-44
2022/08/29 02:37:03;;;;;;;0.55;0.40;;;;;;;23.49;44.82;102186.97;5054655;28;20026;-44
2022/08/29 02:39:29;;;;;;;0.70;0.45;;;;;;;23.47;44.93;102186.31;5057654;28;20024;-44
2022/08/29 02:41:54;;;;;;;0.73;0.40;;;;;;;23.45;44.88;102189.19;5049769;28;20132;-47
2022/08/29 02:44:20;;;;;;;0.82;0.52;;;;;;;23.45;44.68;102183.78;5050679;28;20157;-44
2022/08/29 02:46:45;;;;;;;0.57;0.30;;;;;;;23.45;44.84;102190.06;5060524;28;20036;-46
2022/08/29 02:49:10;;;;;;;0.90;0.50;;;;;;;23.43;44.73;102188.50;5063523;28;20025;-43
2022/08/29 02:51:36;;;;;;;0.70;0.50;;;;;;;23.43;44.82;102193.94;5048983;28;20072;-46
2022/08/29 02:54:02;;;;;;;1.17;0.82;;;;;;;23.40;44.80;102180.69;5062752;28;20047;-44
2022/08/29 02:56:27;;;;;;;0.90;0.50;;;;;;;23.42;44.85;102182.22;5062372;28;20049;-48
2022/08/29 02:58:52;;;;;;;0.90;0.40;;;;;;;23.42;44.60;102182.22;5056133;28;20098;-48
2022/08/29 03:01:19;;;;;;;0.77;0.50;;;;;;;23.41;44.87;102183.25;5054680;28;20025;-45
2022/08/29 03:03:45;;;;;;;0.95;0.50;;;;;;;23.40;44.70;102176.09;5047971;28;20055;-44
2022/08/29 03:06:11;;;;;;;0.60;0.43;;;;;;;23.40;44.72;102181.53;5051936;28;20026;-48
2022/08/29 03:08:37;;;;;;;0.85;0.60;;;;;;;23.39;44.85;102185.28;5056627;28;20029;-44
2022/08/29 03:11:02;;;;;;;0.68;0.40;;;;;;;23.39;44.73;102171.69;5051649;28;20044;-46
2022/08/29 03:13:28;;;;;;;0.30;0.30;;;;;;;23.38;44.83;102175.44;5048585;28;20037;-49
2022/08/29 03:15:53;;;;;;;0.70;0.40;;;;;;;23.35;44.61;102164.91;5050349;28;20032;-46
2022/08/29 03:18:18;;;;;;;0.75;0.50;;;;;;;23.37;44.80;102168.31;5062370;28;20095;-43
2022/08/29 03:20:44;;;;;;;0.60;0.40;;;;;;;23.36;44.73;102169.34;5063014;28;20025;-44
2022/08/29 03:23:09;;;;;;;0.60;0.50;;;;;;;23.37;44.74;102172.91;5062672;28;20025;-50
2022/08/29 03:25:34;;;;;;;0.68;0.50;;;;;;;23.35;44.66;102170.34;5062559;28;20029;-49
2022/08/29 03:28:00;;;;;;;0.60;0.45;;;;;;;23.35;44.59;102167.63;5062734;28;20057;-47
2022/08/29 03:30:26;;;;;;;0.50;0.45;;;;;;;23.35;44.75;102169.50;5062564;28;20478;-44
2022/08/29 03:32:52;;;;;;;0.80;0.52;;;;;;;23.33;44.94;102169.66;5060634;28;20518;-44
2022/08/29 03:35:18;;;;;;;0.50;0.30;;;;;;;23.31;44.91;102168.97;5062780;28;20088;-43
2022/08/29 03:37:44;;;;;;;1.13;0.60;;;;;;;23.29;44.92;102165.59;5062441;28;20069;-45
2022/08/29 03:40:11;;;;;;;0.52;0.32;;;;;;;23.32;44.90;102167.97;5063117;28;20051;-42
2022/08/29 03:42:37;;;;;;;0.60;0.50;;;;;;;23.32;44.58;102167.09;5062544;28;20048;-43
2022/08/29 03:45:07;;;;;;;0.40;0.40;;;;;;;23.32;44.85;102164.41;5048379;28;20025;-46
2022/08/29 03:47:32;;;;;;;0.45;0.40;;;;;;;23.30;44.64;102158.28;5061878;28;20025;-43
2022/08/29 03:49:58;;;;;;;0.40;0.30;;;;;;;23.30;44.35;102156.44;5048993;28;20083;-45
2022/08/29 03:52:23;;;;;;;0.90;0.75;;;;;;;23.24;44.82;102137.28;5059340;28;20059;-44
2022/08/29 03:54:48;;;;;;;0.40;0.40;;;;;;;23.30;44.70;102151.00;5061136;28;20043;-44
2022/08/29 03:57:13;;;;;;;1.38;0.50;;;;;;;23.28;44.71;102149.47;5064361;28;20162;-43
2022/08/29 03:59:39;;;;;;;0.70;0.50;;;;;;;23.28;44.67;102144.03;5053473;28;20029;-44
2022/08/29 04:02:04;;;;;;;0.90;0.50;;;;;;;23.28;44.91;102141.31;5059271;28;20024;-45
2022/08/29 04:07:13;;;;;;;0.60;0.40;;;;;;;23.26;44.83;102135.22;5052002;28;20494;-44
2022/08/29 04:09:41;;;;;;;0.90;0.50;;;;;;;23.26;44.84;102135.22;5055100;28;20025;-44
2022/08/29 04:12:10;;;;;;;0.70;0.40;;;;;;;23.24;44.69;102138.13;5060043;28;20022;-49
2022/08/29 04:14:35;;;;;;;0.63;0.45;;;;;;;23.23;44.76;102136.41;5056031;28;20032;-46
2022/08/29 04:17:02;;;;;;;0.70;0.50;;;;;;;23.23;44.93;102146.41;5050376;28;20359;-46
2022/08/29 04:19:27;;;;;;;0.85;0.55;;;;;;;23.22;44.67;102142.84;5058309;28;20022;-44
2022/08/29 04:21:53;;;;;;;0.77;0.63;;;;;;;23.22;44.61;102137.41;5059475;28;20033;-44
2022/08/29 04:24:19;;;;;;;0.65;0.60;;;;;;;23.21;44.82;102135.72;5051929;28;20090;-43
2022/08/29 04:26:45;;;;;;;0.52;0.50;;;;;;;23.22;44.95;102139.28;5065485;28;20037;-43
2022/08/29 04:29:11;;;;;;;0.75;0.55;;;;;;;23.20;44.63;102137.59;5051751;28;20024;-45
2022/08/29 04:31:37;;;;;;;0.73;0.50;;;;;;;23.21;44.75;102152.00;5061087;28;20037;-48
2022/08/29 04:34:04;;;;;;;0.68;0.50;;;;;;;23.20;44.68;102156.59;5052974;28;20049;-43
2022/08/29 04:36:29;;;;;;;0.88;0.43;;;;;;;23.20;44.83;102150.31;5063790;28;20029;-49
2022/08/29 04:38:54;;;;;;;0.90;0.60;;;;;;;23.15;44.67;102148.13;5065667;28;20036;-46
2022/08/29 04:41:20;;;;;;;0.52;0.40;;;;;;;23.20;44.83;102155.75;5065280;28;20029;-48
2022/08/29 04:43:45;;;;;;;0.70;0.50;;;;;;;23.19;44.81;102154.91;5065076;28;20025;-45
2022/08/29 04:46:13;;;;;;;0.77;0.50;;;;;;;23.19;44.72;102160.31;5064530;28;20036;-48
2022/08/29 04:48:39;;;;;;;2.20;0.80;;;;;;;23.20;44.78;102158.47;5064579;28;20528;-47
2022/08/29 04:51:04;;;;;;;0.50;0.50;;;;;;;23.14;44.81;102143.69;5065171;28;20029;-50
2022/08/29 04:53:29;;;;;;;0.60;0.38;;;;;;;23.17;44.91;102154.22;5064986;28;20032;-46
2022/08/29 04:55:57;;;;;;;0.65;0.55;;;;;;;23.18;45.06;102158.59;5064816;28;20410;-47
2022/08/29 04:58:24;;;;;;;0.80;0.40;;;;;;;23.15;44.93;102164.38;5064467;28;20029;-47
2022/08/29 05:00:49;;;;;;;0.88;0.63;;;;;;;23.16;45.02;102160.66;5063724;28;20056;-42
2022/08/29 05:03:15;;;;;;;0.57;0.40;;;;;;;23.19;44.83;102170.31;5063460;28;20021;-46
2022/08/29 05:05:40;;;;;;;0.70;0.57;;;;;;;23.18;45.02;102166.75;5064148;28;20028;-45
2022/08/29 05:08:05;;;;;;;0.75;0.50;;;;;;;23.18;44.95;102165.91;5058975;28;20021;-44
2022/08/29 05:10:31;;;;;;;1.52;0.55;;;;;;;23.18;45.01;102169.47;5064506;28;20079;-45
2022/08/29 05:12:56;;;;;;;0.75;0.50;;;;;;;23.18;45.02;102157.75;5061109;28;20025;-47
2022/08/29 05:15:22;;;;;;;0.63;0.50;;;;;;;23.18;44.94;102171.34;5064054;28;20112;-44
2022/08/29 05:17:47;;;;;;;0.57;0.40;;;;;;;23.18;45.12;102174.03;5063117;28;20031;-45
2022/08/29 05:20:12;;;;;;;0.38;0.38;;;;;;;23.17;45.13;102180.50;5063975;28;20056;-44
2022/08/29 05:22:39;;;;;;;0.68;0.47;;;;;;;23.17;45.27;102189.47;5062580;28;20477;-45
2022/08/29 05:25:05;;;;;;;0.95;0.55;;;;;;;23.17;45.15;102197.63;5064593;28;20032;-44
2022/08/29 05:27:30;;;;;;;0.47;0.47;;;;;;;23.16;45.17;102189.66;5062261;28;20033;-43
2022/08/29 05:29:57;;;;;;;0.65;0.60;;;;;;;23.16;45.34;102187.78;5063872;28;20017;-44
2022/08/29 05:32:23;;;;;;;0.47;0.40;;;;;;;23.18;45.12;102196.59;5063357;28;20054;-43
2022/08/29 05:34:49;;;;;;;0.70;0.50;;;;;;;23.15;45.18;102205.09;5063715;28;20458;-42
2022/08/29 05:37:18;;;;;;;1.33;0.70;;;;;;;23.18;45.43;102195.75;5063617;28;20069;-41
2022/08/29 05:39:43;;;;;;;0.40;0.40;;;;;;;23.17;45.43;102199.47;5061796;28;20055;-44
2022/08/29 05:42:10;;;;;;;1.05;0.50;;;;;;;23.18;45.26;102198.47;5060786;28;20040;-50
2022/08/29 05:44:36;;;;;;;1.33;0.70;;;;;;;23.12;45.23;102193.72;5059349;28;20028;-47
2022/08/29 05:47:07;;;;;;;0.30;0.30;;;;;;;23.19;45.52;102200.16;5056070;28;20115;-49
2022/08/29 05:49:34;;;;;;;1.23;0.70;;;;;;;23.17;45.31;102197.63;5057827;28;20021;-51
2022/08/29 05:52:00;;;;;;;0.77;0.60;;;;;;;23.17;45.44;102194.06;5061714;28;20020;-48
2022/08/29 05:54:25;;;;;;;1.00;0.50;;;;;;;23.16;45.44;102201.34;5063855;28;20043;-49
2022/08/29 05:56:51;;;;;;;0.88;0.63;;;;;;;23.15;45.55;102191.53;5062718;28;20068;-50
2022/08/29 05:59:17;;;;;;;0.70;0.50;;;;;;;23.15;45.75;102202.38;5063642;28;20107;-52
2022/08/29 06:01:44;;;;;;;1.35;0.82;;;;;;;23.15;45.63;102202.38;5062568;28;20589;-49
2022/08/29 06:04:10;;;;;;;0.60;0.43;;;;;;;23.10;45.42;102193.00;5063661;28;20048;-49
2022/08/29 06:06:35;;;;;;;0.82;0.60;;;;;;;23.15;45.59;102204.22;5063014;28;20017;-51
2022/08/29 06:09:00;;;;;;;0.82;0.52;;;;;;;23.15;45.39;102194.22;5063420;28;20071;-48
2022/08/29 06:11:29;;;;;;;1.15;0.98;;;;;;;23.15;45.61;102201.50;5063192;28;20027;-50
2022/08/29 06:13:54;;;;;;;0.95;0.70;;;;;;;23.15;45.32;102198.78;5062704;28;20085;-49
2022/08/29 06:16:22;;;;;;;1.02;0.60;;;;;;;23.16;45.63;102200.50;5063264;28;20033;-50
2022/08/29 06:18:47;;;;;;;0.93;0.55;;;;;;;23.16;45.66;102204.06;5061041;28;20032;-53
2022/08/29 06:21:13;;;;;;;1.00;0.60;;;;;;;23.17;45.74;102202.19;5061776;28;20024;-52
2022/08/29 06:23:40;;;;;;;0.90;0.60;;;;;;;23.17;45.54;102197.63;5061772;28;20040;-53
2022/08/29 06:26:07;;;;;;;0.90;0.52;;;;;;;23.18;45.78;102206.59;5049692;28;20036;-43
2022/08/29 06:28:34;;;;;;;1.23;0.88;;;;;;;23.19;45.73;102203.75;5044350;28;20028;-46
2022/08/29 06:31:10;;;;;;;1.00;0.73;;;;;;;23.20;45.89;102188.31;5060595;28;20027;-45
2022/08/29 06:33:36;;;;;;;1.42;0.70;;;;;;;23.20;46.16;102186.44;5051019;28;20053;-47
2022/08/29 06:36:03;;;;;;;0.80;0.50;;;;;;;23.18;46.14;102183.03;5062481;28;20025;-52
2022/08/29 06:38:28;;;;;;;0.82;0.63;;;;;;;23.22;46.01;102188.13;5046269;28;20025;-50
2022/08/29 06:40:53;;;;;;;0.73;0.50;;;;;;;23.22;45.75;102196.28;5050223;28;20098;-49
2022/08/29 06:43:19;;;;;;;0.70;0.60;;;;;;;23.20;46.13;102191.88;5056572;28;20032;-48
2022/08/29 06:45:44;;;;;;;0.70;0.50;;;;;;;23.22;46.22;102198.97;5047929;28;20032;-49
2022/08/29 06:48:09;;;;;;;0.80;0.60;;;;;;;23.23;45.88;102198.81;5050265;28;20618;-49
2022/08/29 06:50:38;;;;;;;0.93;0.60;;;;;;;23.23;46.04;102204.22;5047567;28;20111;-52
2022/08/29 06:53:04;;;;;;;;;;;;;;;23.20;45.92;102207.31;5062163;28;20046;-50
2022/08/29 06:55:29;;;;;;;0.95;0.70;;;;;;;23.19;45.93;102208.28;5063192;28;19948;-52
2022/08/29 06:57:55;;;;;;;1.00;0.68;;;;;;;23.22;46.12;102212.56;5054009;28;20490;-47
2022/08/29 07:00:20;;;;;;;1.00;0.70;;;;;;;23.22;46.05;102210.69;5056577;28;20024;-48
2022/08/29 07:02:46;;;;;;;1.60;0.88;;;;;;;23.23;45.98;102206.94;5055556;28;20024;-45
2022/08/29 07:05:12;;;;;;;0.77;0.60;;;;;;;23.22;45.73;102216.09;5055371;28;20033;-47
2022/08/29 07:07:37;;;;;;;1.02;0.68;;;;;;;23.23;45.96;102223.22;5058051;28;20067;-49
2022/08/29 07:10:02;;;;;;;0.57;0.50;;;;;;;23.23;45.93;102214.25;5053862;28;20467;-48
2022/08/29 07:12:28;;;;;;;1.48;0.80;;;;;;;23.25;45.78;102213.06;5056800;28;20051;-48
2022/08/29 07:14:53;;;;;;;1.27;0.80;;;;;;;23.24;45.87;102219.53;5055789;28;20036;-46
2022/08/29 07:17:19;;;;;;;0.98;0.65;;;;;;;23.21;45.64;102217.13;5037639;28;20039;-48
2022/08/29 07:19:45;;;;;;;1.02;0.60;;;;;;;23.26;45.96;102225.63;5057802;28;20085;-47
2022/08/29 07:22:10;;;;;;;0.88;0.60;;;;;;;23.27;45.61;102227.31;5059028;28;20029;-48
2022/08/29 07:24:35;;;;;;;1.98;0.90;;;;;;;23.28;45.90;102231.75;5062944;28;20109;-46
2022/08/29 07:27:00;;;;;;;1.05;0.73;;;;;;;23.29;45.54;102230.72;5058069;28;20080;-46
2022/08/29 07:29:26;;;;;;;1.30;0.70;;;;;;;23.30;45.86;102226.97;5058622;28;20687;-46
2022/08/29 07:31:51;;;;;;;1.60;0.73;;;;;;;23.27;45.57;102221.03;5050868;28;20025;-49
2022/08/29 07:34:18;;;;;;;0.93;0.60;;;;;;;23.30;45.60;102231.56;5060964;28;20081;-48
2022/08/29 07:36:43;;;;;;;1.00;0.75;;;;;;;23.26;45.61;102227.47;5066680;28;20017;-48
2022/08/29 07:39:12;;;;;;;0.88;0.75;;;;;;;23.28;45.81;102231.75;5066734;28;20024;-46
2022/08/29 07:41:38;;;;;;;;;;;;;;;23.25;45.53;102234.78;5066979;28;20017;-46
2022/08/29 07:44:03;;;;;;;1.35;0.70;;;;;;;23.18;45.57;102225.59;5066615;28;19916;-47
2022/08/29 07:46:30;;;;;;;0.80;0.60;;;;;;;23.25;45.91;102234.78;5065907;28;20021;-50
2022/08/29 07:48:57;;;;;;;1.45;0.80;;;;;;;23.20;45.59;102223.59;5064832;28;20462;-47
2022/08/29 07:51:22;;;;;;;0.82;0.60;;;;;;;23.22;45.74;102223.41;5066312;28;20028;-49
2022/08/29 07:53:48;;;;;;;0.93;0.57;;;;;;;23.24;45.91;102233.09;5058334;28;20017;-47
2022/08/29 07:56:24;;;;;;;0.70;0.50;;;;;;;23.26;45.84;102236.47;5058885;28;20071;-46
2022/08/29 07:58:49;;;;;;;1.00;0.70;;;;;;;23.25;45.66;102229.34;5052083;28;20009;-48
2022/08/29 08:01:15;;;;;;;1.02;0.65;;;;;;;23.24;45.54;102230.38;5065978;28;20482;-49
2022/08/29 08:03:41;;;;;;;0.75;0.52;;;;;;;23.25;45.67;102233.94;5061537;28;20025;-47
2022/08/29 08:06:08;;;;;;;0.93;0.70;;;;;;;23.24;45.77;102230.38;5056257;28;20025;-49
2022/08/29 08:08:34;;;;;;;1.55;0.93;;;;;;;23.25;45.48;102236.66;5052056;28;20033;-48
2022/08/29 08:10:59;;;;;;;0.82;0.60;;;;;;;23.23;45.47;102235.94;5066114;28;20029;-46
2022/08/29 08:13:25;;;;;;;1.20;0.60;;;;;;;23.24;45.46;102233.09;5051760;28;20093;-47
2022/08/29 08:15:50;;;;;;;1.60;0.95;;;;;;;23.25;45.65;102228.50;5059399;28;20017;-48
2022/08/29 08:18:15;;;;;;;0.82;0.68;;;;;;;23.24;45.36;102227.66;5057323;28;20048;-48
2022/08/29 08:20:47;;;;;;;1.33;0.80;;;;;;;23.28;45.40;102236.28;5051632;28;20025;-47
2022/08/29 08:23:16;;;;;;;1.15;0.77;;;;;;;23.30;45.49;102235.13;5064751;28;20057;-45
2022/08/29 08:25:42;;;;;;;0.80;0.60;;;;;;;23.32;45.50;102234.94;5062399;28;20434;-47
2022/08/29 08:28:07;;;;;;;2.20;0.60;;;;;;;23.35;45.62;102237.34;5053451;28;20017;-57
2022/08/29 08:30:33;;;;;;;1.58;0.98;;;;;;;23.37;45.25;102238.88;5051117;28;20045;-49
2022/08/29 08:32:58;;;;;;;1.38;1.05;;;;;;;23.39;45.32;102244.97;5065327;28;20225;-50
2022/08/29 08:35:24;;;;;;;1.17;0.60;;;;;;;23.40;45.40;102240.41;5055032;28;20033;-50
2022/08/29 08:37:50;;;;;;;1.65;0.90;;;;;;;23.44;45.45;102239.91;5059348;28;20040;-51
2022/08/29 08:40:20;;;;;;;1.58;0.73;;;;;;;23.49;45.24;102241.25;5052925;28;20032;-47
2022/08/29 08:42:46;;;;;;;1.05;0.75;;;;;;;23.48;45.19;102235.00;5063726;28;20046;-53
2022/08/29 08:45:14;;;;;;;1.30;0.85;;;;;;;23.53;45.29;102238.03;5064936;28;20025;-50
2022/08/29 08:47:44;;;;;;;0.98;0.60;;;;;;;23.58;45.04;102243.00;5052520;28;20026;-50
2022/08/29 08:50:16;;;;;;;1.67;0.70;;;;;;;23.65;45.09;102238.63;5059681;28;20047;-49
2022/08/29 08:52:46;;;;;;;1.80;0.93;;;;;;;23.71;45.13;102243.38;5061902;28;20676;-51
2022/08/29 08:55:42;;;;;;;1.75;1.13;;;;;;;23.76;45.17;102243.72;5063795;28;20057;-46
2022/08/29 08:58:17;;;;;;;1.83;0.95;;;;;;;23.76;45.03;102241.00;5074852;28;20167;-46
2022/08/29 09:00:45;;;;;;;1.73;0.93;;;;;;;23.77;45.07;102244.56;5063666;28;20087;-50
2022/08/29 09:03:46;;;;;;;1.20;0.70;;;;;;;23.78;45.01;102238.13;5064677;28;20021;-48
2022/08/29 09:06:26;;;;;;;1.38;0.60;;;;;;;23.79;44.91;102243.41;5055625;28;20033;-46
2022/08/29 09:09:13;;;;;;;1.67;0.80;;;;;;;23.82;44.93;102237.59;5063589;28;20214;-53
2022/08/29 09:12:16;;;;;;;1.63;0.80;;;;;;;23.82;45.03;102226.75;5063339;28;20021;-42
2022/08/29 09:14:54;;;;;;;1.58;0.73;;;;;;;23.89;44.58;102235.06;5026687;28;20122;-42
2022/08/29 09:17:43;;;;;;;1.10;0.80;;;;;;;23.92;44.74;102230.16;5035005;28;20052;-45
2022/08/29 09:20:15;;;;;;;2.15;0.80;;;;;;;23.97;44.60;102228.78;5027033;28;20057;-44
2022/08/29 09:22:43;;;;;;;0.90;0.60;;;;;;;23.99;44.56;102235.75;5036152;28;20128;-44
2022/08/29 09:25:10;;;;;;;0.88;0.70;;;;;;;24.02;44.48;102232.69;5006606;28;20025;-43
2022/08/29 09:27:36;;;;;;;1.25;0.85;;;;;;;24.03;44.55;102236.25;5025151;28;20029;-45
2022/08/29 09:30:20;;;;;;;1.48;0.85;;;;;;;24.03;44.53;102230.81;5039185;28;20041;-46
2022/08/29 09:32:56;;;;;;;1.45;0.80;;;;;;;23.98;44.23;102233.19;5037780;28;20034;-43
2022/08/29 09:35:27;;;;;;;1.02;0.70;;;;;;;24.01;44.43;102241.03;5039489;28;20037;-46
2022/08/29 09:38:07;;;;;;;1.27;0.80;;;;;;;23.96;44.29;102238.81;5039232;28;20025;-46
2022/08/29 09:40:44;;;;;;;1.20;0.82;;;;;;;23.98;44.55;102241.34;5040184;28;20037;-45
2022/08/29 09:43:22;;;;;;;1.50;0.90;;;;;;;23.97;44.45;102240.50;5036385;28;20039;-47
2022/08/29 09:46:11;;;;;;;1.20;0.70;;;;;;;23.97;44.36;102242.38;5035888;28;20083;-45
2022/08/29 09:48:42;;;;;;;1.95;0.82;;;;;;;23.94;44.64;102238.97;5049552;28;20056;-44
2022/08/29 09:51:29;;;;;;;1.13;0.88;;;;;;;23.94;44.47;102232.69;5056222;28;20442;-50
2022/08/29 09:54:15;;;;;;;1.13;0.80;;;;;;;23.94;44.68;102228.09;5051458;28;20083;-49
2022/08/29 09:57:09;;;;;;;1.65;0.85;;;;;;;23.95;44.55;102228.94;5050847;28;20068;-47
2022/08/29 09:59:38;;;;;;;0.90;0.60;;;;;;;23.93;44.39;102231.00;5051193;28;20064;-47
2022/08/29 10:02:23;;;;;;;1.42;0.77;;;;;;;23.94;44.45;102233.53;5054637;28;20021;-46
2022/08/29 10:05:01;;;;;;;1.35;0.70;;;;;;;23.95;44.71;102232.50;5056361;28;20120;-49
2022/08/29 10:07:34;;;;;;;0.90;0.60;;;;;;;23.96;44.67;102230.66;5050653;28;20081;-46
2022/08/29 10:10:04;;;;;;;0.90;0.50;;;;;;;23.98;44.66;102231.34;5054288;28;20027;-43
2022/08/29 10:12:46;;;;;;;1.23;0.73;;;;;;;24.00;44.55;102237.47;5056162;28;20175;-45
2022/08/29 10:15:18;;;;;;;1.95;1.00;;;;;;;24.01;44.57;102241.03;5060173;28;20028;-44
2022/08/29 10:21:03;;;;;;;1.13;0.88;;;;;;;24.03;44.46;102236.25;5057633;28;20036;-50
2022/08/29 10:23:36;;;;;;;2.20;1.63;;;;;;;24.02;44.71;102231.84;5055135;28;20031;-50
2022/08/29 10:26:10;;;;;;;0.90;0.70;;;;;;;24.01;44.64;102228.28;5052531;28;20017;-49
2022/08/29 10:29:27;;;;;;;0.95;0.60;;;;;;;24.02;44.71;102219.09;5057770;28;20108;-47
2022/08/29 10:32:02;;;;;;;1.35;0.80;;;;;;;24.01;44.78;102228.28;5015250;28;20149;-49
2022/08/29 10:34:53;;;;;;;0.95;0.70;;;;;;;24.01;44.65;102228.28;5020973;28;20080;-47
2022/08/29 10:37:27;;;;;;;1.10;0.70;;;;;;;24.01;44.77;102232.88;4993121;28;20037;-48
2022/08/29 10:40:03;;;;;;;0.90;0.55;;;;;;;24.03;44.59;102228.09;5038489;28;20111;-46
2022/08/29 10:42:30;;;;;;;1.27;0.57;;;;;;;24.04;44.80;102227.91;5024797;28;20069;-51
2022/08/29 10:45:02;;;;;;;1.75;1.05;;;;;;;24.08;44.60;102223.84;5020073;28;20052;-50
2022/08/29 10:47:38;;;;;;;0.70;0.50;;;;;;;24.11;44.98;102217.22;5036984;28;20029;-51
2022/08/29 10:50:10;;;;;;;0.90;0.60;;;;;;;24.19;44.76;102222.66;5038273;28;20033;-46
2022/08/29 10:52:45;;;;;;;1.42;0.60;;;;;;;24.25;44.83;102221.09;5038011;28;20510;-46
2022/08/29 10:55:46;;;;;;;1.65;0.80;;;;;;;24.27;44.87;102219.94;5018374;28;20064;-48
2022/08/29 10:58:32;;;;;;;1.55;0.98;;;;;;;24.26;44.64;102223.66;5036447;28;20037;-45
2022/08/29 11:01:04;;;;;;;1.50;0.68;;;;;;;24.29;44.71;102217.03;5036969;28;20033;-50
2022/08/29 11:03:48;;;;;;;1.55;0.73;;;;;;;24.32;44.60;102216.69;5017229;28;20037;-56
2022/08/29 11:06:26;;;;;;;1.52;0.73;;;;;;;24.35;44.86;102217.19;5035222;28;20105;-57
2022/08/29 11:08:57;;;;;;;1.13;0.60;;;;;;;24.40;44.64;102222.13;5041811;28;20028;-49
2022/08/29 11:11:23;;;;;;;1.25;0.70;;;;;;;24.43;44.81;102219.09;5063956;28;20492;-52
2022/08/29 11:13:53;;;;;;;1.00;0.50;;;;;;;24.46;44.65;102216.00;5059053;28;20092;-48
2022/08/29 11:16:45;;;;;;;2.20;0.60;;;;;;;24.45;44.65;102214.31;5041239;28;20017;-50
2022/08/29 11:19:15;;;;;;;1.17;0.70;;;;;;;24.41;44.63;102200.22;5040622;28;20448;-47
2022/08/29 11:21:50;;;;;;;1.33;0.57;;;;;;;24.47;44.88;102201.41;5051584;28;20022;-48
2022/08/29 11:24:17;;;;;;;1.27;0.60;;;;;;;24.45;44.81;102200.72;5059926;28;20021;-42
2022/08/29 11:26:42;;;;;;;1.15;0.75;;;;;;;24.48;44.76;102196.81;5058582;28;20098;-47
2022/08/29 11:29:38;;;;;;;0.80;0.60;;;;;;;24.50;44.87;102192.03;5063506;28;20584;-45
2022/08/29 11:32:25;;;;;;;1.17;0.70;;;;;;;24.48;44.71;102185.94;5055774;28;20116;-50
2022/08/29 11:35:08;;;;;;;2.30;0.70;;;;;;;24.52;45.05;102190.00;5055199;28;20032;-45
2022/08/29 11:37:47;;;;;;;0.98;0.60;;;;;;;24.56;45.04;102180.47;5057175;28;20051;-43
2022/08/29 11:40:27;;;;;;;0.98;0.57;;;;;;;24.61;44.89;102194.38;5057933;28;20033;-46
2022/08/29 11:42:53;;;;;;;1.05;0.82;;;;;;;24.60;44.96;102187.25;5059431;28;20090;-47
2022/08/29 11:45:28;;;;;;;1.15;0.80;;;;;;;24.60;44.95;102187.25;5053845;28;20024;-47